createdAt,value
2018-08-09T00:00:19.726Z,23.60
2018-08-09T00:02:48.279Z,23.60
2018-08-09T00:05:16.838Z,23.60
2018-08-09T00:07:45.582Z,23.60
2018-08-09T00:10:14.166Z,23.50
2018-08-09T00:12:42.739Z,23.50
2018-08-09T00:15:11.348Z,23.50
2018-08-09T00:20:32.550Z,23.50
2018-08-09T00:23:01.101Z,23.40
2018-08-09T00:25:29.679Z,23.30
2018-08-09T00:27:58.276Z,23.20
2018-08-09T00:30:26.898Z,23.10
2018-08-09T00:32:55.563Z,23.10
2018-08-09T00:35:24.138Z,23.00
2018-08-09T00:37:52.688Z,23.10
2018-08-09T00:40:21.373Z,23.00
2018-08-09T00:42:49.957Z,23.00
2018-08-09T00:45:18.545Z,22.90
2018-08-09T00:47:47.115Z,22.90
2018-08-09T00:50:15.710Z,22.80
2018-08-09T00:52:44.254Z,22.70
2018-08-09T00:55:12.799Z,22.60
2018-08-09T00:57:41.342Z,22.70
2018-08-09T01:00:09.895Z,22.60
2018-08-09T01:02:38.586Z,22.50
2018-08-09T01:05:07.170Z,22.50
2018-08-09T01:07:35.738Z,22.50
2018-08-09T01:10:05.051Z,22.40
2018-08-09T01:12:33.919Z,22.40
2018-08-09T01:15:02.539Z,22.40
2018-08-09T01:17:31.103Z,22.40
2018-08-09T01:19:59.974Z,22.40
2018-08-09T01:22:28.570Z,22.40
2018-08-09T01:24:57.162Z,22.30
2018-08-09T01:27:25.727Z,22.30
2018-08-09T01:29:54.294Z,22.30
2018-08-09T01:32:22.857Z,22.40
2018-08-09T01:34:51.458Z,22.40
2018-08-09T01:37:20.121Z,22.30
2018-08-09T01:39:48.681Z,22.20
2018-08-09T01:42:28.399Z,22.30
2018-08-09T01:44:57.003Z,22.30
2018-08-09T01:47:25.558Z,22.30
2018-08-09T01:49:54.115Z,22.30
2018-08-09T01:52:22.678Z,22.30
2018-08-09T01:54:51.613Z,22.30
2018-08-09T01:57:20.159Z,22.40
2018-08-09T01:59:48.748Z,22.40
2018-08-09T02:02:17.319Z,22.50
2018-08-09T02:04:45.932Z,22.50
2018-08-09T02:07:14.478Z,22.50
2018-08-09T02:09:43.018Z,22.50
2018-08-09T02:12:11.580Z,22.50
2018-08-09T02:14:40.123Z,22.40
2018-08-09T02:17:08.813Z,22.40
2018-08-09T02:19:37.650Z,22.50
2018-08-09T02:22:06.218Z,22.50
2018-08-09T02:24:34.764Z,22.40
2018-08-09T02:27:03.338Z,22.40
2018-08-09T02:29:31.894Z,22.40
2018-08-09T02:32:00.953Z,22.40
2018-08-09T02:34:29.539Z,22.40
2018-08-09T02:36:58.247Z,22.40
2018-08-09T02:39:26.863Z,22.40
2018-08-09T02:41:55.452Z,22.30
2018-08-09T02:44:24.011Z,22.30
2018-08-09T02:46:52.597Z,22.40
2018-08-09T02:49:21.178Z,22.30
2018-08-09T02:51:49.739Z,22.30
2018-08-09T02:54:18.347Z,22.30
2018-08-09T02:56:46.893Z,22.30
2018-08-09T02:59:15.676Z,22.30
2018-08-09T03:01:44.237Z,22.30
2018-08-09T03:04:12.956Z,22.20
2018-08-09T03:06:41.771Z,22.20
2018-08-09T03:09:12.680Z,22.10
2018-08-09T03:11:42.455Z,22.10
2018-08-09T03:14:11.277Z,22.10
2018-08-09T03:16:39.867Z,22.10
2018-08-09T03:19:08.435Z,22.00
2018-08-09T03:21:37.042Z,22.00
2018-08-09T03:24:05.642Z,21.90
2018-08-09T03:26:34.206Z,22.00
2018-08-09T03:29:03.117Z,22.00
2018-08-09T03:31:31.750Z,22.00
2018-08-09T03:34:00.337Z,22.00
2018-08-09T03:36:28.887Z,22.00
2018-08-09T03:38:57.450Z,22.00
2018-08-09T03:41:26.023Z,22.00
2018-08-09T03:43:54.590Z,22.00
2018-08-09T03:46:23.343Z,22.00
2018-08-09T03:48:51.915Z,22.00
2018-08-09T03:51:20.507Z,21.90
2018-08-09T03:53:49.090Z,22.00
2018-08-09T03:56:17.685Z,22.00
2018-08-09T03:58:46.246Z,22.00
2018-08-09T04:01:14.834Z,22.00
2018-08-09T04:03:43.722Z,22.00
2018-08-09T04:06:12.279Z,22.00
2018-08-09T04:08:40.840Z,22.10
2018-08-09T04:11:09.399Z,22.10
2018-08-09T04:13:37.978Z,22.10
2018-08-09T04:16:06.998Z,22.20
2018-08-09T04:18:35.587Z,22.20
2018-08-09T04:21:04.263Z,22.10
2018-08-09T04:23:32.871Z,22.20
2018-08-09T04:26:01.483Z,22.20
2018-08-09T04:28:30.130Z,22.30
2018-08-09T04:30:58.783Z,22.40
2018-08-09T04:33:27.494Z,22.40
2018-08-09T04:35:56.087Z,22.40
2018-08-09T04:38:24.678Z,22.40
2018-08-09T04:40:53.269Z,22.30
2018-08-09T04:43:21.896Z,22.40
2018-08-09T04:45:50.582Z,22.40
2018-08-09T04:48:24.953Z,22.40
2018-08-09T04:50:53.512Z,22.40
2018-08-09T04:53:22.068Z,22.40
2018-08-09T04:55:50.621Z,22.30
2018-08-09T04:58:19.397Z,22.30
2018-08-09T05:00:47.982Z,22.40
2018-08-09T05:03:16.558Z,22.40
2018-08-09T05:05:45.117Z,22.40
2018-08-09T05:08:13.675Z,22.40
2018-08-09T05:10:42.261Z,22.40
2018-08-09T05:13:10.809Z,22.40
2018-08-09T05:15:39.661Z,22.40
2018-08-09T05:18:08.294Z,22.40
2018-08-09T05:20:36.914Z,22.40
2018-08-09T05:23:05.557Z,22.50
2018-08-09T05:25:34.079Z,22.50
2018-08-09T05:28:02.628Z,22.50
2018-08-09T05:30:31.371Z,22.50
2018-08-09T05:33:00.060Z,22.60
2018-08-09T05:35:28.636Z,22.60
2018-08-09T05:37:57.187Z,22.60
2018-08-09T05:40:25.838Z,22.70
2018-08-09T05:42:54.429Z,22.70
2018-08-09T05:45:23.059Z,22.70
2018-08-09T05:47:51.647Z,22.70
2018-08-09T05:50:20.379Z,22.70
2018-08-09T05:52:49.106Z,22.70
2018-08-09T05:55:17.658Z,22.70
2018-08-09T05:57:46.226Z,22.80
2018-08-09T06:00:14.843Z,22.80
2018-08-09T06:02:43.535Z,22.80
2018-08-09T06:05:12.144Z,22.80
2018-08-09T06:07:40.712Z,22.90
2018-08-09T06:10:09.295Z,22.90
2018-08-09T06:12:37.874Z,22.90
2018-08-09T06:15:06.544Z,23.00
2018-08-09T06:17:35.097Z,23.10
2018-08-09T06:20:03.918Z,23.00
2018-08-09T06:22:32.491Z,23.00
2018-08-09T06:25:01.166Z,22.90
2018-08-09T06:27:29.947Z,22.90
2018-08-09T06:29:58.529Z,22.90
2018-08-09T06:32:27.130Z,23.00
2018-08-09T06:34:55.795Z,23.00
2018-08-09T06:37:24.402Z,23.10
2018-08-09T06:39:53.377Z,23.10
2018-08-09T06:42:21.979Z,23.10
2018-08-09T06:44:50.527Z,23.20
2018-08-09T06:47:19.104Z,23.10
2018-08-09T06:49:47.663Z,23.20
2018-08-09T06:52:16.236Z,23.20
2018-08-09T06:54:44.813Z,23.20
2018-08-09T06:57:13.395Z,23.20
2018-08-09T06:59:41.987Z,23.20
2018-08-09T07:02:10.599Z,23.20
2018-08-09T07:04:39.280Z,23.30
2018-08-09T07:07:07.883Z,23.50
2018-08-09T07:09:36.495Z,23.60
2018-08-09T07:12:05.168Z,23.80
2018-08-09T07:14:33.788Z,23.90
2018-08-09T07:17:02.582Z,24.00
2018-08-09T07:19:31.163Z,24.20
2018-08-09T07:21:59.710Z,24.40
2018-08-09T07:24:28.394Z,24.40
2018-08-09T07:26:56.984Z,24.10
2018-08-09T07:29:25.567Z,24.20
2018-08-09T07:31:54.198Z,24.10
2018-08-09T07:34:22.763Z,24.20
2018-08-09T07:36:51.523Z,24.20
2018-08-09T07:39:20.282Z,24.20
2018-08-09T07:41:48.850Z,24.30
2018-08-09T07:44:17.431Z,24.40
2018-08-09T07:46:46.132Z,24.40
2018-08-09T07:49:14.943Z,24.50
2018-08-09T07:51:43.696Z,24.60
2018-08-09T07:54:12.305Z,24.60
2018-08-09T07:56:40.830Z,24.80
2018-08-09T07:59:09.389Z,24.70
2018-08-09T08:01:37.973Z,24.70
2018-08-09T08:04:06.607Z,24.80
2018-08-09T08:06:36.072Z,24.80
2018-08-09T08:09:08.055Z,24.90
2018-08-09T08:11:36.675Z,24.90
2018-08-09T08:14:05.542Z,25.10
2018-08-09T08:16:34.156Z,25.40
2018-08-09T08:19:02.723Z,25.70
2018-08-09T08:21:31.375Z,25.80
2018-08-09T08:23:59.958Z,25.80
2018-08-09T08:26:28.725Z,25.80
2018-08-09T08:28:57.325Z,25.80
2018-08-09T08:31:25.910Z,26.10
2018-08-09T08:33:54.535Z,26.10
2018-08-09T08:36:23.122Z,26.30
2018-08-09T08:38:51.701Z,26.30
2018-08-09T08:41:20.349Z,26.50
2018-08-09T08:43:48.917Z,26.50
2018-08-09T08:46:17.502Z,26.50
2018-08-09T08:48:46.122Z,26.50
2018-08-09T08:51:14.702Z,26.60
2018-08-09T08:53:43.731Z,26.70
2018-08-09T08:56:12.334Z,26.60
2018-08-09T08:58:40.963Z,26.90
2018-08-09T09:01:09.557Z,27.30
2018-08-09T09:03:38.123Z,27.50
2018-08-09T09:06:06.678Z,27.40
2018-08-09T09:08:35.257Z,27.50
2018-08-09T09:11:03.863Z,27.70
2018-08-09T09:13:32.442Z,27.60
2018-08-09T09:16:01.098Z,27.90
2018-08-09T09:18:29.755Z,28.00
2018-08-09T09:20:58.430Z,28.20
2018-08-09T09:23:27.005Z,28.00
2018-08-09T09:25:55.558Z,27.80
2018-08-09T09:28:24.163Z,27.60
2018-08-09T09:30:52.777Z,27.50
2018-08-09T09:33:21.366Z,27.40
2018-08-09T09:35:49.991Z,27.80
2018-08-09T09:38:18.611Z,27.70
2018-08-09T09:40:47.203Z,28.00
2018-08-09T09:43:15.810Z,27.90
2018-08-09T09:45:44.463Z,27.90
2018-08-09T09:48:13.194Z,27.80
2018-08-09T09:50:41.817Z,28.00
2018-08-09T09:53:10.490Z,28.00
2018-08-09T09:55:39.057Z,28.00
2018-08-09T09:58:07.658Z,28.20
2018-08-09T10:00:41.547Z,28.10
2018-08-09T10:03:10.140Z,28.20
2018-08-09T10:05:38.711Z,28.10
2018-08-09T10:08:07.319Z,27.90
2018-08-09T10:10:35.954Z,27.80
2018-08-09T10:13:04.702Z,28.10
2018-08-09T10:15:33.251Z,28.40
2018-08-09T10:18:01.790Z,28.40
2018-08-09T10:20:30.434Z,28.50
2018-08-09T10:22:59.067Z,28.80
2018-08-09T10:25:27.910Z,28.60
2018-08-09T10:27:56.509Z,28.60
2018-08-09T10:30:25.146Z,28.80
2018-08-09T10:32:53.698Z,28.80
2018-08-09T10:35:22.248Z,29.40
2018-08-09T10:37:50.949Z,29.40
2018-08-09T10:40:19.521Z,29.50
2018-08-09T10:42:48.163Z,29.60
2018-08-09T10:45:16.674Z,29.50
2018-08-09T10:47:45.250Z,29.60
2018-08-09T10:50:13.802Z,29.90
2018-08-09T10:52:42.434Z,30.30
2018-08-09T10:55:11.053Z,30.20
2018-08-09T10:57:39.606Z,30.40
2018-08-09T11:00:09.998Z,30.30
2018-08-09T11:02:38.589Z,30.50
2018-08-09T11:05:07.672Z,30.80
2018-08-09T11:07:36.302Z,30.70
2018-08-09T11:10:05.457Z,30.80
2018-08-09T11:12:34.042Z,31.30
2018-08-09T11:15:02.655Z,31.10
2018-08-09T11:17:31.199Z,31.30
2018-08-09T11:19:59.786Z,31.50
2018-08-09T11:22:28.340Z,31.50
2018-08-09T11:24:56.938Z,31.60
2018-08-09T11:27:25.568Z,31.40
2018-08-09T11:29:54.234Z,32.00
2018-08-09T11:32:22.792Z,31.60
2018-08-09T11:34:51.373Z,32.00
2018-08-09T11:37:19.949Z,32.10
2018-08-09T11:39:48.549Z,31.70
2018-08-09T11:42:17.294Z,31.80
2018-08-09T11:44:45.864Z,32.10
2018-08-09T11:47:14.409Z,32.50
2018-08-09T11:49:42.961Z,32.20
2018-08-09T11:52:11.556Z,32.10
2018-08-09T11:54:40.165Z,32.30
2018-08-09T11:57:08.822Z,32.20
2018-08-09T11:59:37.499Z,31.80
2018-08-09T12:02:06.147Z,32.10
2018-08-09T12:04:34.847Z,32.30
2018-08-09T12:07:03.449Z,32.30
2018-08-09T12:09:32.028Z,31.90
2018-08-09T12:12:00.722Z,32.50
2018-08-09T12:14:29.290Z,32.80
2018-08-09T12:16:57.919Z,32.90
2018-08-09T12:19:26.502Z,32.90
2018-08-09T12:21:55.138Z,33.00
2018-08-09T12:24:23.812Z,32.90
2018-08-09T12:26:52.941Z,33.30
2018-08-09T12:29:21.860Z,33.40
2018-08-09T12:31:50.566Z,33.20
2018-08-09T12:34:19.582Z,32.90
2018-08-09T12:36:48.272Z,32.80
2018-08-09T12:39:16.918Z,33.40
2018-08-09T12:41:45.618Z,33.30
2018-08-09T12:44:14.190Z,33.30
2018-08-09T12:46:42.883Z,33.10
2018-08-09T12:49:11.599Z,33.20
2018-08-09T12:51:40.229Z,33.20
2018-08-09T12:54:08.878Z,33.60
2018-08-09T12:56:37.558Z,33.10
2018-08-09T12:59:06.215Z,33.30
2018-08-09T13:01:34.898Z,32.50
2018-08-09T13:04:03.527Z,32.70
2018-08-09T13:06:32.153Z,33.00
2018-08-09T13:09:00.794Z,33.50
2018-08-09T13:11:29.561Z,33.70
2018-08-09T13:13:58.181Z,33.20
2018-08-09T13:16:26.767Z,33.40
2018-08-09T13:18:55.343Z,33.90
2018-08-09T13:21:23.919Z,34.10
2018-08-09T13:23:52.494Z,33.90
2018-08-09T13:26:21.142Z,34.20
2018-08-09T13:28:49.722Z,33.90
2018-08-09T13:31:18.339Z,33.90
2018-08-09T13:33:46.951Z,34.00
2018-08-09T13:36:15.524Z,34.30
2018-08-09T13:38:44.104Z,34.30
2018-08-09T13:41:12.686Z,34.00
2018-08-09T13:43:41.616Z,34.40
2018-08-09T13:46:10.262Z,34.40
2018-08-09T13:48:38.964Z,34.40
2018-08-09T13:51:07.608Z,34.50
2018-08-09T13:53:36.204Z,34.70
2018-08-09T13:56:05.077Z,34.50
2018-08-09T13:58:33.675Z,34.40
2018-08-09T14:01:02.276Z,34.30
2018-08-09T14:03:30.960Z,34.20
2018-08-09T14:05:59.546Z,34.50
2018-08-09T14:08:28.087Z,34.30
2018-08-09T14:10:56.695Z,34.50
2018-08-09T14:13:25.356Z,34.50
2018-08-09T14:15:53.923Z,34.30
2018-08-09T14:18:22.567Z,34.10
2018-08-09T14:20:51.139Z,34.10
2018-08-09T14:23:19.725Z,34.00
2018-08-09T14:25:48.287Z,34.20
2018-08-09T14:28:16.935Z,34.50
2018-08-09T14:30:45.509Z,34.40
2018-08-09T14:33:14.115Z,34.20
2018-08-09T14:35:42.864Z,34.30
2018-08-09T14:38:11.432Z,34.20
2018-08-09T14:40:40.019Z,34.00
2018-08-09T14:43:08.644Z,33.80
2018-08-09T14:45:37.192Z,33.80
2018-08-09T14:48:06.484Z,33.40
2018-08-09T14:50:35.084Z,33.10
2018-08-09T14:53:03.974Z,32.70
2018-08-09T14:55:32.566Z,32.40
2018-08-09T14:58:01.186Z,32.10
2018-08-09T15:00:29.751Z,31.80
2018-08-09T15:02:58.363Z,31.60
2018-08-09T15:05:26.965Z,31.40
2018-08-09T15:07:55.610Z,31.50
2018-08-09T15:10:24.233Z,31.40
2018-08-09T15:12:52.862Z,31.40
2018-08-09T15:15:21.694Z,31.70
2018-08-09T15:17:50.341Z,32.10
2018-08-09T15:20:19.007Z,32.30
2018-08-09T15:22:47.904Z,32.30
2018-08-09T15:25:16.547Z,32.00
2018-08-09T15:27:45.271Z,32.00
2018-08-09T15:30:17.120Z,31.90
2018-08-09T15:32:45.874Z,31.80
2018-08-09T15:35:14.670Z,31.50
2018-08-09T15:37:43.424Z,31.60
2018-08-09T15:40:12.694Z,31.40
2018-08-09T15:42:41.281Z,31.50
2018-08-09T15:45:11.516Z,31.40
2018-08-09T15:47:40.691Z,31.30
2018-08-09T15:50:12.253Z,31.00
2018-08-09T15:52:41.437Z,30.70
2018-08-09T15:55:10.545Z,30.80
2018-08-09T15:57:39.285Z,30.50
2018-08-09T16:00:10.408Z,30.40
2018-08-09T16:02:39.171Z,30.20
2018-08-09T16:05:08.245Z,29.90
2018-08-09T16:07:36.866Z,29.80
2018-08-09T16:10:08.389Z,29.60
2018-08-09T16:12:37.244Z,29.50
2018-08-09T16:15:06.817Z,29.50
2018-08-09T16:17:35.655Z,29.40
2018-08-09T16:20:05.394Z,29.20
2018-08-09T16:22:34.342Z,29.10
2018-08-09T16:25:03.024Z,28.90
2018-08-09T16:27:31.831Z,28.70
2018-08-09T16:30:00.541Z,28.70
2018-08-09T16:32:29.166Z,28.60
2018-08-09T16:34:57.759Z,28.50
2018-08-09T16:37:26.343Z,28.50
2018-08-09T16:39:54.968Z,28.30
2018-08-09T16:42:23.532Z,28.30
2018-08-09T16:44:52.248Z,28.30
2018-08-09T16:47:20.849Z,28.20
2018-08-09T16:49:49.439Z,28.20
2018-08-09T16:52:18.037Z,28.20
2018-08-09T16:54:46.572Z,28.20
2018-08-09T16:57:15.124Z,28.10
2018-08-09T16:59:43.671Z,28.00
2018-08-09T17:02:12.302Z,27.80
2018-08-09T17:04:40.881Z,27.80
2018-08-09T17:07:09.497Z,27.60
2018-08-09T17:09:38.115Z,27.50
2018-08-09T17:12:06.798Z,27.50
2018-08-09T17:14:35.374Z,27.50
2018-08-09T17:17:04.027Z,27.40
2018-08-09T17:19:32.761Z,27.50
2018-08-09T17:22:01.315Z,27.40
2018-08-09T17:24:29.935Z,27.40
2018-08-09T17:26:58.541Z,27.30
2018-08-09T17:29:27.127Z,27.30
2018-08-09T17:31:55.739Z,27.00
2018-08-09T17:34:24.290Z,27.00
2018-08-09T17:36:52.907Z,26.90
2018-08-09T17:39:21.543Z,26.90
2018-08-09T17:41:50.142Z,26.90
2018-08-09T17:44:18.735Z,26.80
2018-08-09T17:46:47.387Z,26.80
2018-08-09T17:49:16.019Z,26.70
2018-08-09T17:51:44.674Z,26.60
2018-08-09T17:54:13.301Z,26.50
2018-08-09T17:56:42.184Z,26.50
2018-08-09T17:59:10.819Z,26.40
2018-08-09T18:01:39.362Z,26.40
2018-08-09T18:04:07.954Z,26.40
2018-08-09T18:06:36.786Z,26.20
2018-08-09T18:09:08.918Z,26.20
2018-08-09T18:11:37.695Z,26.20
2018-08-09T18:14:06.447Z,26.20
2018-08-09T18:16:35.129Z,26.10
2018-08-09T18:19:03.792Z,26.10
2018-08-09T18:21:32.390Z,26.00
2018-08-09T18:24:01.406Z,26.00
2018-08-09T18:26:30.039Z,26.00
2018-08-09T18:28:58.662Z,25.90
2018-08-09T18:31:27.484Z,25.90
2018-08-09T18:33:56.063Z,25.90
2018-08-09T18:36:24.719Z,25.90
2018-08-09T18:38:53.340Z,25.90
2018-08-09T18:41:22.090Z,25.80
2018-08-09T18:43:51.095Z,25.70
2018-08-09T18:46:19.671Z,25.70
2018-08-09T18:48:48.298Z,25.60
2018-08-09T18:51:17.030Z,25.60
2018-08-09T18:53:45.631Z,25.50
2018-08-09T18:56:14.510Z,25.40
2018-08-09T18:58:43.108Z,25.30
2018-08-09T19:01:11.784Z,25.30
2018-08-09T19:03:40.376Z,25.20
2018-08-09T19:06:08.982Z,25.20
2018-08-09T19:08:37.656Z,25.10
2018-08-09T19:11:06.314Z,25.10
2018-08-09T19:13:35.503Z,25.10
2018-08-09T19:16:04.588Z,25.00
2018-08-09T19:18:33.259Z,25.00
2018-08-09T19:21:01.906Z,24.90
2018-08-09T19:23:30.551Z,24.90
2018-08-09T19:25:59.171Z,24.80
2018-08-09T19:28:27.865Z,24.80
2018-08-09T19:30:56.554Z,24.70
2018-08-09T19:33:25.264Z,24.60
2018-08-09T19:35:53.997Z,24.60
2018-08-09T19:38:22.643Z,24.60
2018-08-09T19:40:51.216Z,24.50
2018-08-09T19:43:19.852Z,24.50
2018-08-09T19:45:48.441Z,24.40
2018-08-09T19:48:17.030Z,24.40
2018-08-09T19:50:45.704Z,24.50
2018-08-09T19:53:14.342Z,24.40
2018-08-09T19:55:42.906Z,24.40
2018-08-09T19:58:11.534Z,24.30
2018-08-09T20:00:40.216Z,24.30
2018-08-09T20:03:08.943Z,24.30
2018-08-09T20:05:37.833Z,24.30
2018-08-09T20:08:06.483Z,24.30
2018-08-09T20:10:35.430Z,24.20
2018-08-09T20:13:04.131Z,24.00
2018-08-09T20:15:32.754Z,23.90
2018-08-09T20:18:01.504Z,23.80
2018-08-09T20:20:30.258Z,23.70
2018-08-09T20:22:59.491Z,23.70
2018-08-09T20:25:28.345Z,23.60
2018-08-09T20:27:57.062Z,23.60
2018-08-09T20:30:25.742Z,23.50
2018-08-09T20:32:54.637Z,23.50
2018-08-09T20:35:24.327Z,23.30
2018-08-09T20:37:53.337Z,23.30
2018-08-09T20:40:23.235Z,23.20
2018-08-09T20:42:53.172Z,23.20
2018-08-09T20:45:23.068Z,23.10
2018-08-09T20:47:51.722Z,23.10
2018-08-09T20:50:23.626Z,23.10
2018-08-09T20:52:52.614Z,23.10
2018-08-09T20:55:21.303Z,23.10
2018-08-09T20:57:50.834Z,23.00
2018-08-09T21:00:24.784Z,22.90
2018-08-09T21:02:54.942Z,22.90
2018-08-09T21:05:28.582Z,22.90
2018-08-09T21:07:57.807Z,22.90
2018-08-09T21:10:27.172Z,22.90
2018-08-09T21:12:55.826Z,22.80
2018-08-09T21:15:24.629Z,22.70
2018-08-09T21:17:53.310Z,22.80
2018-08-09T21:20:22.283Z,22.70
2018-08-09T21:22:51.587Z,22.60
2018-08-09T21:25:20.315Z,22.70
2018-08-09T21:27:49.594Z,22.60
2018-08-09T21:30:22.637Z,22.60
2018-08-09T21:32:51.693Z,22.60
2018-08-09T21:35:20.622Z,22.50
2018-08-09T21:37:49.302Z,22.40
2018-08-09T21:40:17.982Z,22.40
2018-08-09T21:42:46.667Z,22.40
2018-08-09T21:45:17.542Z,22.40
2018-08-09T21:47:46.253Z,22.30
2018-08-09T21:50:18.711Z,22.30
2018-08-09T21:52:47.422Z,22.20
2018-08-09T21:55:16.356Z,22.20
2018-08-09T21:57:45.894Z,22.10
2018-08-09T22:01:00.720Z,22.10
2018-08-09T22:03:32.078Z,22.10
2018-08-09T22:06:06.011Z,22.00
2018-08-09T22:08:40.079Z,22.00
2018-08-09T22:11:15.465Z,22.00
2018-08-09T22:13:49.543Z,22.00
2018-08-09T22:16:23.551Z,22.00
2018-08-09T22:20:59.320Z,22.00
2018-08-09T22:23:27.971Z,21.90
2018-08-09T22:25:56.932Z,21.80
2018-08-09T22:28:25.546Z,21.80
2018-08-09T22:30:54.198Z,21.80
2018-08-09T22:33:22.811Z,21.80
2018-08-09T22:35:51.778Z,21.80
2018-08-09T22:38:20.568Z,21.80
2018-08-09T22:40:49.175Z,21.90
2018-08-09T22:43:17.834Z,21.80
2018-08-09T22:45:46.518Z,21.90
2018-08-09T22:48:15.175Z,21.80
2018-08-09T22:50:44.411Z,21.80
2018-08-09T22:53:13.360Z,21.70
2018-08-09T22:55:42.037Z,21.80
2018-08-09T22:58:10.740Z,21.80
2018-08-09T23:00:39.450Z,21.70
2018-08-09T23:03:11.660Z,21.80
2018-08-09T23:05:40.633Z,21.80
2018-08-09T23:08:11.151Z,21.80
2018-08-09T23:10:40.979Z,21.70
2018-08-09T23:13:10.781Z,21.70
2018-08-09T23:15:40.096Z,21.70
2018-08-09T23:18:09.446Z,21.70
2018-08-09T23:20:38.474Z,21.80
2018-08-09T23:23:07.575Z,21.80
2018-08-09T23:25:36.319Z,21.80
2018-08-09T23:28:05.323Z,21.80
2018-08-09T23:30:34.051Z,21.70
2018-08-09T23:33:02.755Z,21.70
2018-08-09T23:35:31.408Z,21.80
2018-08-09T23:38:00.097Z,21.70
2018-08-09T23:40:28.782Z,21.70
2018-08-09T23:42:57.798Z,21.70
2018-08-09T23:45:26.440Z,21.70
2018-08-09T23:47:55.098Z,21.70
2018-08-09T23:50:23.792Z,21.80
2018-08-09T23:52:52.463Z,21.70
2018-08-09T23:55:21.151Z,21.80
2018-08-09T23:57:49.858Z,21.70
